Time;durP1;ratioP1;P1;durP2;ratioP2;P2;SDS_P1;SDS_P2;PMS_P1;PMS_P2;Temp;Humidity;BMP_temperature;BMP_pressure;BME280_temperature;BME280_humidity;BME280_pressure;Samples;Min_cycle;Max_cycle;Signal;HPM_P1;HPM_P2
2021/09/12 00:00:40;;;;;;;13.60;5.13;;;16.10;99.90;;;;;;5127309;28;20563;-70
2021/09/12 00:03:06;;;;;;;11.57;5.13;;;16.20;99.90;;;;;;5127024;28;20254;-70
2021/09/12 00:05:33;;;;;;;16.73;5.22;;;16.20;99.90;;;;;;5127464;28;20159;-70
2021/09/12 00:07:58;;;;;;;10.15;4.93;;;16.20;99.90;;;;;;5127337;28;20206;-70
2021/09/12 00:10:25;;;;;;;8.65;5.30;;;16.20;99.90;;;;;;5109059;28;20174;-70
2021/09/12 00:12:50;;;;;;;11.15;5.43;;;16.30;99.90;;;;;;5127236;28;20179;-70
2021/09/12 00:15:16;;;;;;;9.77;5.40;;;16.40;99.90;;;;;;5127270;28;20241;-70
2021/09/12 00:17:42;;;;;;;13.77;5.57;;;16.40;99.90;;;;;;5126670;28;20163;-70
2021/09/12 00:20:08;;;;;;;17.92;6.13;;;16.30;99.90;;;;;;5108904;28;20228;-70
2021/09/12 00:22:34;;;;;;;7.80;5.30;;;16.50;99.90;;;;;;5127055;28;20155;-70
2021/09/12 00:25:00;;;;;;;9.90;5.65;;;16.50;99.90;;;;;;5127054;28;20159;-70
2021/09/12 00:27:26;;;;;;;14.05;5.93;;;16.30;99.90;;;;;;5127068;28;20158;-70
2021/09/12 00:29:52;;;;;;;12.32;5.90;;;16.30;99.90;;;;;;5126631;28;20194;-70
2021/09/12 00:32:17;;;;;;;14.30;5.38;;;16.20;99.90;;;;;;5127027;28;20257;-70
2021/09/12 00:34:43;;;;;;;10.85;5.70;;;16.20;99.90;;;;;;5126769;28;20227;-70
2021/09/12 00:37:08;;;;;;;12.27;5.20;;;16.30;99.90;;;;;;5108551;28;20222;-70
2021/09/12 00:39:34;;;;;;;12.65;4.93;;;16.10;99.90;;;;;;5127045;28;20174;-70
2021/09/12 00:42:09;;;;;;;9.60;5.22;;;16.10;99.90;;;;;;5126647;28;20170;-70
2021/09/12 00:44:34;;;;;;;13.48;5.00;;;16.20;99.90;;;;;;5126805;28;20160;-70
2021/09/12 00:47:09;;;;;;;17.17;5.47;;;16.00;99.90;;;;;;5126835;28;20183;-70
2021/09/12 00:49:35;;;;;;;8.90;4.88;;;16.00;99.90;;;;;;5126487;28;20195;-70
2021/09/12 00:52:01;;;;;;;16.25;5.10;;;15.80;99.90;;;;;;5126382;28;20206;-70
2021/09/12 00:54:29;;;;;;;11.55;4.57;;;15.80;99.90;;;;;;5126657;28;20167;-70
2021/09/12 00:56:56;;;;;;;9.27;4.80;;;15.90;99.90;;;;;;5108467;28;20158;-70
2021/09/12 00:59:22;;;;;;;10.25;4.38;;;15.80;99.90;;;;;;5108132;28;20171;-70
2021/09/12 01:01:48;;;;;;;6.32;4.45;;;15.80;99.90;;;;;;5126430;28;20200;-70
2021/09/12 01:04:14;;;;;;;10.27;4.85;;;15.70;99.90;;;;;;5126352;28;20173;-70
2021/09/12 01:06:40;;;;;;;8.68;4.63;;;15.70;99.90;;;;;;5126726;28;20163;-70
2021/09/12 01:09:06;;;;;;;8.63;5.38;;;15.60;99.90;;;;;;5126304;28;20234;-70
2021/09/12 01:11:32;;;;;;;9.52;4.65;;;15.70;99.90;;;;;;5126324;28;20185;-70
2021/09/12 01:13:57;;;;;;;14.48;4.63;;;15.60;99.90;;;;;;5126638;28;20513;-70
2021/09/12 01:16:23;;;;;;;11.48;4.15;;;15.70;99.90;;;;;;5126651;28;20158;-71
2021/09/12 01:18:49;;;;;;;16.98;5.10;;;15.60;99.90;;;;;;5126124;28;20175;-70
2021/09/12 01:21:19;;;;;;;9.38;4.85;;;15.60;99.90;;;;;;5126379;28;20166;-70
2021/09/12 01:23:46;;;;;;;7.50;4.63;;;15.70;99.90;;;;;;5126731;28;20159;-70
2021/09/12 01:26:11;;;;;;;11.48;4.72;;;15.80;99.90;;;;;;5111726;28;20166;-70
2021/09/12 01:28:42;;;;;;;15.07;4.82;;;15.70;99.90;;;;;;5112301;28;20162;-70
2021/09/12 01:31:18;;;;;;;9.50;4.40;;;15.80;99.90;;;;;;5111877;28;20202;-70
2021/09/12 01:33:43;;;;;;;12.80;4.72;;;15.80;99.90;;;;;;5145916;27;20194;-70
2021/09/12 01:36:09;;;;;;;10.95;4.63;;;15.60;99.90;;;;;;5112382;28;20170;-70
2021/09/12 01:38:35;;;;;;;11.10;5.22;;;15.50;99.90;;;;;;5130402;28;20154;-70
2021/09/12 01:41:00;;;;;;;14.88;4.93;;;15.50;99.90;;;;;;5130147;28;20167;-70
2021/09/12 01:43:26;;;;;;;14.23;5.22;;;15.50;99.90;;;;;;5130236;28;20245;-70
2021/09/12 01:45:51;;;;;;;9.57;5.28;;;15.60;99.90;;;;;;5130142;28;20186;-70
2021/09/12 01:48:17;;;;;;;6.93;4.75;;;15.60;99.90;;;;;;5111533;28;20631;-70
2021/09/12 01:50:42;;;;;;;11.32;4.70;;;15.60;99.90;;;;;;5130177;28;20167;-70
2021/09/12 01:53:08;;;;;;;10.07;5.00;;;15.50;99.90;;;;;;5111741;28;20250;-70
2021/09/12 01:55:34;;;;;;;12.70;5.18;;;15.50;99.90;;;;;;5129891;28;20166;-70
2021/09/12 01:57:59;;;;;;;7.18;4.80;;;15.50;99.90;;;;;;5130095;28;20163;-70
2021/09/12 02:00:25;;;;;;;19.35;5.60;;;15.60;99.90;;;;;;5129572;28;20181;-70
2021/09/12 02:02:51;;;;;;;9.20;5.20;;;15.60;99.90;;;;;;5129614;28;20613;-70
2021/09/12 02:05:16;;;;;;;11.23;5.03;;;15.50;99.90;;;;;;5111560;28;20154;-70
2021/09/12 02:07:42;;;;;;;14.70;5.65;;;15.40;99.90;;;;;;5111455;28;20159;-70
2021/09/12 02:10:08;;;;;;;12.45;5.45;;;15.30;99.90;;;;;;5129775;28;20259;-70
2021/09/12 02:12:34;;;;;;;9.95;5.53;;;15.40;99.90;;;;;;5129795;28;20186;-70
2021/09/12 02:14:59;;;;;;;13.30;5.55;;;15.30;99.90;;;;;;5129689;28;20165;-70
2021/09/12 02:17:25;;;;;;;16.20;5.93;;;15.30;99.90;;;;;;5129746;28;20159;-70
2021/09/12 02:19:50;;;;;;;11.73;5.63;;;15.30;99.90;;;;;;5129234;28;20177;-71
2021/09/12 02:22:16;;;;;;;17.70;6.60;;;15.40;99.90;;;;;;5129535;28;20419;-70
2021/09/12 02:24:42;;;;;;;11.10;5.43;;;15.30;99.90;;;;;;5129484;28;20174;-70
2021/09/12 02:27:08;;;;;;;14.55;6.10;;;15.20;99.90;;;;;;5129652;28;20197;-70
2021/09/12 02:29:34;;;;;;;9.50;5.30;;;15.30;99.90;;;;;;5111074;28;20589;-70
2021/09/12 02:32:00;;;;;;;8.93;5.88;;;15.10;99.90;;;;;;5110542;28;20187;-70
2021/09/12 02:34:25;;;;;;;11.27;5.70;;;15.20;99.90;;;;;;5129080;28;20178;-70
2021/09/12 02:36:51;;;;;;;13.52;5.53;;;15.20;99.90;;;;;;5129022;28;20249;-70
2021/09/12 02:39:17;;;;;;;14.35;5.30;;;15.30;99.90;;;;;;5129155;28;20158;-70
2021/09/12 02:41:42;;;;;;;14.60;5.20;;;15.20;99.90;;;;;;5129015;28;20195;-70
2021/09/12 02:44:08;;;;;;;9.82;5.30;;;15.30;99.90;;;;;;5129320;28;20167;-70
2021/09/12 02:46:34;;;;;;;14.27;5.68;;;15.30;99.90;;;;;;5129206;28;20173;-70
2021/09/12 02:48:59;;;;;;;9.57;5.35;;;15.10;99.90;;;;;;5128753;28;20175;-70
2021/09/12 02:51:25;;;;;;;11.55;5.55;;;15.20;99.90;;;;;;5128745;28;20202;-70
2021/09/12 02:53:50;;;;;;;11.63;5.82;;;15.10;99.90;;;;;;5110718;28;20230;-70
2021/09/12 02:56:16;;;;;;;12.90;5.97;;;15.20;99.90;;;;;;5128916;28;20194;-70
2021/09/12 02:58:42;;;;;;;11.70;5.78;;;15.10;99.90;;;;;;5129023;28;20169;-71
2021/09/12 03:01:07;;;;;;;8.70;5.63;;;15.00;99.90;;;;;;5128429;28;20170;-70
2021/09/12 03:03:33;;;;;;;8.82;5.63;;;15.10;99.90;;;;;;5128436;28;20209;-70
2021/09/12 03:05:59;;;;;;;11.15;5.55;;;15.20;99.90;;;;;;5129027;28;20173;-70
2021/09/12 03:08:25;;;;;;;10.48;5.22;;;15.30;99.90;;;;;;5128593;28;20262;-70
2021/09/12 03:10:51;;;;;;;8.68;5.47;;;15.30;99.90;;;;;;5110210;28;20219;-70
2021/09/12 03:13:17;;;;;;;8.30;5.35;;;15.20;99.90;;;;;;5128665;28;20182;-70
2021/09/12 03:15:42;;;;;;;13.40;5.60;;;15.20;99.90;;;;;;5128584;28;20158;-70
2021/09/12 03:18:08;;;;;;;12.07;6.13;;;15.20;99.90;;;;;;5109840;28;20662;-70
2021/09/12 03:20:33;;;;;;;12.63;5.68;;;15.20;99.90;;;;;;5128209;28;20159;-70
2021/09/12 03:22:59;;;;;;;15.77;5.78;;;15.30;99.90;;;;;;5110433;28;20174;-70
2021/09/12 03:25:25;;;;;;;19.00;6.05;;;15.30;99.90;;;;;;5128431;28;20155;-70
2021/09/12 03:27:53;;;;;;;12.88;6.53;;;15.30;99.90;;;;;;5128494;28;20170;-70
2021/09/12 03:30:20;;;;;;;17.73;5.82;;;15.30;99.90;;;;;;5127932;28;20151;-70
2021/09/12 03:32:45;;;;;;;15.80;6.30;;;15.20;99.90;;;;;;5127876;28;20194;-70
2021/09/12 03:35:11;;;;;;;12.38;6.30;;;15.20;99.90;;;;;;5128209;28;20167;-70
2021/09/12 03:37:37;;;;;;;11.38;6.45;;;15.20;99.90;;;;;;5109737;28;20622;-70
2021/09/12 03:40:04;;;;;;;14.25;6.95;;;15.10;99.90;;;;;;5127926;28;20166;-70
2021/09/12 03:42:29;;;;;;;7.97;5.75;;;15.00;99.90;;;;;;5109776;28;20230;-70
2021/09/12 03:44:55;;;;;;;12.93;6.80;;;15.10;99.90;;;;;;5128092;28;20174;-70
2021/09/12 03:47:21;;;;;;;11.57;6.57;;;15.10;99.90;;;;;;5127309;28;20162;-70
2021/09/12 03:49:46;;;;;;;19.30;6.55;;;15.10;99.90;;;;;;5109452;28;20183;-70
2021/09/12 03:52:12;;;;;;;13.80;6.32;;;14.90;99.90;;;;;;5127522;28;20186;-70
2021/09/12 03:54:38;;;;;;;12.82;6.72;;;14.90;99.90;;;;;;5127931;28;20188;-70
2021/09/12 03:57:04;;;;;;;12.45;6.75;;;14.80;99.90;;;;;;5127783;28;20155;-70
2021/09/12 03:59:30;;;;;;;11.13;7.00;;;14.80;99.90;;;;;;5109528;28;20162;-70
2021/09/12 04:01:55;;;;;;;11.85;6.28;;;14.80;99.90;;;;;;5127145;28;20639;-70
2021/09/12 04:04:21;;;;;;;10.20;6.00;;;14.80;99.90;;;;;;5127147;28;20541;-70
2021/09/12 04:06:47;;;;;;;9.93;6.40;;;14.80;99.90;;;;;;5127578;28;20200;-70
2021/09/12 04:09:12;;;;;;;14.48;7.70;;;14.80;99.90;;;;;;5127300;28;20210;-70
2021/09/12 04:11:38;;;;;;;13.38;7.55;;;14.80;99.90;;;;;;5127182;28;20207;-70
2021/09/12 04:14:03;;;;;;;12.07;6.80;;;14.90;99.90;;;;;;5127552;28;20184;-70
2021/09/12 04:16:29;;;;;;;9.60;6.57;;;14.90;99.90;;;;;;5127282;28;20159;-70
2021/09/12 04:18:55;;;;;;;11.43;6.57;;;14.80;99.90;;;;;;5127188;28;20166;-70
2021/09/12 04:21:20;;;;;;;9.75;6.68;;;14.80;99.90;;;;;;5108872;28;20367;-70
2021/09/12 04:23:46;;;;;;;17.55;6.97;;;14.90;99.90;;;;;;5109170;28;20250;-70
2021/09/12 04:26:12;;;;;;;13.95;6.63;;;14.80;99.90;;;;;;5127049;28;20163;-70
2021/09/12 04:28:37;;;;;;;16.13;6.18;;;14.70;99.90;;;;;;5127236;28;20189;-70
2021/09/12 04:31:03;;;;;;;12.45;5.97;;;14.70;99.90;;;;;;5126799;28;20181;-70
2021/09/12 04:33:29;;;;;;;10.95;6.13;;;14.60;99.90;;;;;;5126399;28;20191;-70
2021/09/12 04:35:54;;;;;;;10.27;5.85;;;14.60;99.90;;;;;;5127134;28;20194;-70
2021/09/12 04:38:20;;;;;;;13.93;7.40;;;14.60;99.90;;;;;;5108819;28;20163;-70
2021/09/12 04:40:45;;;;;;;13.57;7.03;;;14.60;99.90;;;;;;5108223;28;20166;-70
2021/09/12 04:43:11;;;;;;;10.68;6.35;;;14.60;99.90;;;;;;5126746;28;20557;-70
2021/09/12 04:45:37;;;;;;;13.07;7.07;;;14.60;99.90;;;;;;5126926;28;20159;-70
2021/09/12 04:48:03;;;;;;;18.55;7.60;;;14.70;99.90;;;;;;5126354;28;20565;-70
2021/09/12 04:50:28;;;;;;;14.65;7.40;;;14.50;99.90;;;;;;5126735;28;20198;-70
2021/09/12 04:52:54;;;;;;;17.55;7.38;;;14.50;99.90;;;;;;5126682;28;20179;-70
2021/09/12 04:55:19;;;;;;;15.18;6.72;;;14.40;99.90;;;;;;5108324;28;20151;-70
2021/09/12 04:57:45;;;;;;;16.05;7.15;;;14.30;99.90;;;;;;5126816;28;20173;-70
2021/09/12 05:00:11;;;;;;;9.05;7.35;;;14.30;99.90;;;;;;5126286;28;20201;-70
2021/09/12 05:02:37;;;;;;;11.05;6.68;;;14.40;99.90;;;;;;5126636;28;20192;-70
2021/09/12 05:05:03;;;;;;;15.48;6.63;;;14.40;99.90;;;;;;5126495;28;20267;-70
2021/09/12 05:07:29;;;;;;;15.77;7.80;;;14.40;99.90;;;;;;5126778;28;20184;-70
2021/09/12 05:09:54;;;;;;;12.93;7.00;;;14.50;99.90;;;;;;5126272;28;20210;-71
2021/09/12 05:12:20;;;;;;;21.02;7.00;;;14.40;99.90;;;;;;5126346;28;20697;-70
2021/09/12 05:14:46;;;;;;;12.48;6.95;;;14.50;99.90;;;;;;5126711;28;20178;-70
2021/09/12 05:17:11;;;;;;;13.13;7.50;;;14.40;99.90;;;;;;5126212;28;20566;-70
2021/09/12 05:19:37;;;;;;;17.38;6.82;;;14.40;99.90;;;;;;5125865;28;20178;-70
2021/09/12 05:22:03;;;;;;;11.50;6.82;;;14.60;99.90;;;;;;5126276;28;20166;-70
2021/09/12 05:24:28;;;;;;;9.77;7.20;;;14.60;99.90;;;;;;5126883;28;20174;-70
2021/09/12 05:26:54;;;;;;;14.95;6.88;;;14.50;99.90;;;;;;5108366;28;20163;-70
2021/09/12 05:29:22;;;;;;;15.98;7.85;;;14.50;99.90;;;;;;5126245;28;20162;-70
2021/09/12 05:31:49;;;;;;;17.25;6.80;;;14.50;99.90;;;;;;5126062;28;20179;-70
2021/09/12 05:34:14;;;;;;;15.85;6.65;;;14.50;99.90;;;;;;5126070;28;20171;-70
2021/09/12 05:36:40;;;;;;;12.45;6.38;;;14.60;99.90;;;;;;5126585;28;20198;-71
2021/09/12 05:39:05;;;;;;;10.88;6.72;;;14.70;99.90;;;;;;5126516;28;20189;-70
2021/09/12 05:41:31;;;;;;;11.60;6.50;;;14.70;99.90;;;;;;5126024;28;20171;-71
2021/09/12 05:43:58;;;;;;;15.90;6.95;;;14.60;99.90;;;;;;5142467;28;20170;-70
2021/09/12 05:46:24;;;;;;;18.50;6.63;;;14.70;99.90;;;;;;5107902;28;20539;-71
2021/09/12 05:48:50;;;;;;;14.70;6.25;;;14.70;99.90;;;;;;5125773;28;20167;-70
2021/09/12 05:51:16;;;;;;;7.10;5.95;;;14.80;99.90;;;;;;5125981;28;20159;-70
2021/09/12 05:53:41;;;;;;;12.55;6.50;;;14.80;99.90;;;;;;5107841;28;20193;-70
2021/09/12 05:56:07;;;;;;;13.70;5.95;;;15.00;99.90;;;;;;5126083;28;20163;-70
2021/09/12 05:58:33;;;;;;;13.85;7.22;;;15.10;99.90;;;;;;5126377;28;20176;-70
2021/09/12 06:00:59;;;;;;;10.50;6.00;;;15.00;99.90;;;;;;5125817;28;20196;-70
2021/09/12 06:03:24;;;;;;;11.15;6.18;;;15.10;99.90;;;;;;5125716;28;20174;-70
2021/09/12 06:05:50;;;;;;;12.23;6.50;;;15.10;99.90;;;;;;5126063;28;20163;-70
2021/09/12 06:08:15;;;;;;;11.30;6.57;;;15.30;99.90;;;;;;5125931;28;20276;-70
2021/09/12 06:10:41;;;;;;;9.73;6.50;;;15.40;99.90;;;;;;5126857;28;20167;-70
2021/09/12 06:13:07;;;;;;;10.38;6.15;;;15.40;99.90;;;;;;5129781;28;20208;-70
2021/09/12 06:15:32;;;;;;;9.63;6.85;;;15.40;99.90;;;;;;5129622;28;20155;-70
2021/09/12 06:17:58;;;;;;;9.07;6.03;;;15.40;99.90;;;;;;5129207;28;20167;-70
2021/09/12 06:20:24;;;;;;;12.52;5.90;;;15.50;99.90;;;;;;5129162;28;20147;-70
2021/09/12 06:22:51;;;;;;;13.13;6.30;;;15.20;99.90;;;;;;5111335;28;20162;-70
2021/09/12 06:25:17;;;;;;;9.80;5.93;;;15.10;99.90;;;;;;5129510;28;20165;-70
2021/09/12 06:27:42;;;;;;;14.38;5.88;;;15.10;99.90;;;;;;5145447;27;20212;-70
2021/09/12 06:30:10;;;;;;;12.15;5.80;;;15.20;99.90;;;;;;5129298;28;20174;-70
2021/09/12 06:32:36;;;;;;;13.77;5.63;;;15.30;99.90;;;;;;5145096;27;20186;-70
2021/09/12 06:35:02;;;;;;;10.18;5.78;;;15.30;99.90;;;;;;5129010;28;20171;-70
2021/09/12 06:37:28;;;;;;;9.63;5.75;;;15.30;99.90;;;;;;5129391;28;20154;-70
2021/09/12 06:39:54;;;;;;;9.98;5.60;;;15.40;99.90;;;;;;5129227;28;20166;-70
2021/09/12 06:42:19;;;;;;;10.38;5.65;;;15.30;99.90;;;;;;5128837;28;20171;-70
2021/09/12 06:44:45;;;;;;;9.90;5.13;;;15.40;99.90;;;;;;5110849;28;20241;-70
2021/09/12 06:47:11;;;;;;;14.85;5.80;;;15.20;99.90;;;;;;5129117;28;20245;-70
2021/09/12 06:49:36;;;;;;;14.50;5.88;;;15.30;99.90;;;;;;5128758;28;20631;-70
2021/09/12 06:52:03;;;;;;;18.30;6.07;;;15.50;99.90;;;;;;5110303;28;20681;-70
2021/09/12 06:54:29;;;;;;;12.82;5.72;;;15.50;99.90;;;;;;5128990;28;20679;-70
2021/09/12 06:56:54;;;;;;;8.88;5.47;;;15.60;99.90;;;;;;5110506;28;20190;-70
2021/09/12 06:59:20;;;;;;;15.90;6.13;;;15.50;99.90;;;;;;5128694;28;20158;-69
2021/09/12 07:01:46;;;;;;;11.25;5.82;;;15.60;99.90;;;;;;5128293;28;20177;-70
2021/09/12 07:04:12;;;;;;;13.02;5.47;;;15.70;99.90;;;;;;5110004;28;20170;-70
2021/09/12 07:06:37;;;;;;;12.65;5.43;;;15.70;99.90;;;;;;5128823;28;20170;-70
2021/09/12 07:09:03;;;;;;;12.93;5.70;;;15.60;99.90;;;;;;5109968;28;20226;-69
2021/09/12 07:11:29;;;;;;;10.57;5.18;;;15.70;99.90;;;;;;5128594;28;20162;-70
2021/09/12 07:13:55;;;;;;;9.00;5.03;;;15.80;99.90;;;;;;5128668;28;20526;-70
2021/09/12 07:16:20;;;;;;;8.25;5.32;;;15.90;99.90;;;;;;5128398;28;20250;-70
2021/09/12 07:18:46;;;;;;;9.75;5.28;;;15.90;99.90;;;;;;5127980;28;20202;-70
2021/09/12 07:21:12;;;;;;;13.27;5.70;;;16.00;99.90;;;;;;5128063;28;20184;-70
2021/09/12 07:23:37;;;;;;;11.63;5.78;;;16.00;99.90;;;;;;5127525;28;20163;-70
2021/09/12 07:26:04;;;;;;;9.63;5.35;;;15.70;99.90;;;;;;5128311;28;20163;-70
2021/09/12 07:28:29;;;;;;;14.95;5.97;;;15.70;99.90;;;;;;5109920;28;20211;-70
2021/09/12 07:30:55;;;;;;;12.45;6.28;;;15.80;99.90;;;;;;5127680;28;20158;-70
2021/09/12 07:33:21;;;;;;;12.35;5.40;;;15.80;99.90;;;;;;5127730;28;20197;-70
2021/09/12 07:35:46;;;;;;;11.82;5.50;;;15.90;99.90;;;;;;5127795;28;20151;-70
2021/09/12 07:38:12;;;;;;;11.88;6.13;;;15.90;99.90;;;;;;5128172;28;20158;-70
2021/09/12 07:40:38;;;;;;;12.52;6.07;;;16.40;99.90;;;;;;5128016;28;20182;-70
2021/09/12 07:43:03;;;;;;;12.00;5.90;;;16.20;99.90;;;;;;5109686;28;20163;-70
2021/09/12 07:45:29;;;;;;;16.35;6.07;;;16.30;99.90;;;;;;5127724;28;20233;-70
2021/09/12 07:47:55;;;;;;;12.95;6.38;;;16.50;99.90;;;;;;5109635;28;20166;-70
2021/09/12 07:50:21;;;;;;;18.10;7.22;;;16.70;99.90;;;;;;5127266;28;20181;-70
2021/09/12 07:52:46;;;;;;;14.75;7.10;;;16.80;99.90;;;;;;5127256;28;20204;-70
2021/09/12 07:55:14;;;;;;;20.75;6.90;;;16.80;99.90;;;;;;5127532;28;20194;-70
2021/09/12 07:57:41;;;;;;;12.45;6.85;;;16.50;99.90;;;;;;5127613;28;20151;-71
2021/09/12 08:00:08;;;;;;;9.52;6.25;;;16.50;99.90;;;;;;5127816;28;20161;-70
2021/09/12 08:02:34;;;;;;;11.38;6.38;;;16.70;99.90;;;;;;5127305;28;20174;-70
2021/09/12 08:04:59;;;;;;;9.95;6.13;;;16.80;99.90;;;;;;5127261;28;20171;-70
2021/09/12 08:07:25;;;;;;;10.88;6.65;;;16.90;99.90;;;;;;5109126;28;20223;-70
2021/09/12 08:09:51;;;;;;;14.23;6.40;;;17.00;99.90;;;;;;5127247;28;20214;-70
2021/09/12 08:12:16;;;;;;;15.90;6.65;;;17.00;99.90;;;;;;5127144;28;20278;-70
2021/09/12 08:14:42;;;;;;;16.33;6.78;;;17.10;99.90;;;;;;5127470;28;20166;-70
2021/09/12 08:17:07;;;;;;;14.20;6.30;;;17.30;99.90;;;;;;5127183;28;20204;-70
2021/09/12 08:19:33;;;;;;;17.45;6.38;;;17.40;99.90;;;;;;5126584;28;20181;-70
2021/09/12 08:21:59;;;;;;;12.48;5.90;;;17.70;99.90;;;;;;5126987;28;20171;-70
2021/09/12 08:24:25;;;;;;;11.90;6.00;;;17.80;99.90;;;;;;5127105;28;20166;-70
2021/09/12 08:26:50;;;;;;;17.20;6.97;;;17.80;99.90;;;;;;5127069;28;20158;-70
2021/09/12 08:29:16;;;;;;;15.75;6.82;;;18.20;99.90;;;;;;5127200;28;20207;-70
2021/09/12 08:31:42;;;;;;;22.98;7.25;;;18.40;99.90;;;;;;5108294;28;20183;-70
2021/09/12 08:34:08;;;;;;;15.15;6.47;;;18.40;99.90;;;;;;5126329;28;20177;-71
2021/09/12 08:36:33;;;;;;;11.18;6.28;;;18.50;99.90;;;;;;5127286;28;20226;-70
2021/09/12 08:38:59;;;;;;;14.90;6.45;;;18.40;99.90;;;;;;5126818;28;20186;-70
2021/09/12 08:41:25;;;;;;;10.80;6.00;;;18.30;99.90;;;;;;5126654;28;20166;-70
2021/09/12 08:43:51;;;;;;;12.55;6.35;;;18.40;99.90;;;;;;5127186;28;20162;-71
2021/09/12 08:46:17;;;;;;;19.85;7.05;;;18.50;99.90;;;;;;5142560;27;20159;-71
2021/09/12 08:48:44;;;;;;;18.02;6.85;;;18.70;99.90;;;;;;5126642;28;20175;-70
2021/09/12 08:51:09;;;;;;;16.08;6.75;;;18.60;99.90;;;;;;5126472;28;20167;-71
2021/09/12 08:53:35;;;;;;;12.27;7.45;;;18.70;99.90;;;;;;5126742;28;20583;-69
2021/09/12 08:56:01;;;;;;;10.90;6.32;;;18.90;99.90;;;;;;5126656;28;20151;-71
2021/09/12 08:58:28;;;;;;;18.33;7.22;;;18.60;99.90;;;;;;5108459;28;20559;-70
2021/09/12 09:01:00;;;;;;;15.80;7.32;;;18.50;99.90;;;;;;5125700;28;20162;-70
2021/09/12 09:03:37;;;;;;;19.75;6.97;;;18.70;99.90;;;;;;5142011;27;20216;-70
2021/09/12 09:06:14;;;;;;;17.38;7.70;;;19.00;99.90;;;;;;5126609;28;20151;-70
2021/09/12 09:08:54;;;;;;;15.85;6.97;;;18.90;99.90;;;;;;5126336;28;20212;-71
2021/09/12 09:11:33;;;;;;;11.98;7.30;;;18.70;99.90;;;;;;5126502;28;20181;-70
2021/09/12 09:14:16;;;;;;;16.48;7.22;;;18.90;99.90;;;;;;5126568;28;20155;-70
2021/09/12 09:16:44;;;;;;;13.52;6.80;;;19.10;99.90;;;;;;5126492;28;20167;-70
2021/09/12 09:19:10;;;;;;;19.83;7.30;;;19.30;99.90;;;;;;5126099;28;20167;-70
2021/09/12 09:21:48;;;;;;;14.38;6.57;;;19.40;99.90;;;;;;5126291;28;20177;-70
2021/09/12 09:24:24;;;;;;;15.25;7.15;;;19.50;99.90;;;;;;5126757;28;20188;-70
2021/09/12 09:26:53;;;;;;;9.38;6.75;;;19.60;99.90;;;;;;5126160;28;20163;-70
2021/09/12 09:29:30;;;;;;;14.57;7.57;;;19.60;99.90;;;;;;5126252;28;20160;-70
2021/09/12 09:32:10;;;;;;;19.52;7.90;;;19.60;99.90;;;;;;5126003;28;20205;-70
2021/09/12 09:34:38;;;;;;;18.15;7.93;;;19.80;99.90;;;;;;5126358;28;20194;-71
2021/09/12 09:37:19;;;;;;;13.43;7.28;;;20.00;99.90;;;;;;5126500;28;20155;-70
2021/09/12 09:39:46;;;;;;;18.58;7.70;;;19.90;99.90;;;;;;5126062;28;20218;-70
2021/09/12 09:42:37;;;;;;;16.58;7.43;;;20.20;99.90;;;;;;5126062;28;20166;-70
2021/09/12 09:45:07;;;;;;;11.40;7.25;;;20.30;99.90;;;;;;5126369;28;20159;-71
2021/09/12 09:47:34;;;;;;;12.10;7.40;;;20.40;99.90;;;;;;5130129;28;20186;-70
2021/09/12 09:50:29;;;;;;;12.13;6.78;;;20.40;99.90;;;;;;5111576;28;20166;-70
2021/09/12 09:52:56;;;;;;;12.63;6.53;;;20.60;99.90;;;;;;5122464;28;20729;-70
2021/09/12 09:55:24;;;;;;;14.88;7.03;;;20.80;99.90;;;;;;5129843;28;20321;-70
2021/09/12 09:57:52;;;;;;;14.43;7.30;;;20.80;99.90;;;;;;5111347;28;20234;-70
2021/09/12 10:00:20;;;;;;;16.42;7.90;;;20.90;99.90;;;;;;5145910;27;20241;-70
2021/09/12 10:02:47;;;;;;;12.68;6.63;;;21.20;99.90;;;;;;5129732;28;20227;-71
2021/09/12 10:05:14;;;;;;;12.10;6.82;;;21.20;99.90;;;;;;5129234;28;20167;-70
2021/09/12 10:07:41;;;;;;;11.43;6.70;;;21.40;99.90;;;;;;5129728;28;20170;-70
2021/09/12 10:10:09;;;;;;;13.88;6.60;;;21.70;99.90;;;;;;5129688;28;20155;-70
2021/09/12 10:12:59;;;;;;;14.48;7.07;;;21.80;99.90;;;;;;5129373;28;20209;-71
2021/09/12 10:15:30;;;;;;;15.05;6.60;;;21.80;99.90;;;;;;5129525;28;20139;-71
2021/09/12 10:17:56;;;;;;;11.95;6.80;;;21.50;99.90;;;;;;5129738;28;20167;-70
2021/09/12 10:20:28;;;;;;;12.88;6.22;;;21.60;99.90;;;;;;5129211;28;20340;-70
2021/09/12 10:22:53;;;;;;;12.63;6.78;;;21.50;99.90;;;;;;5129212;28;20654;-70
2021/09/12 10:25:21;;;;;;;16.25;6.30;;;21.40;99.90;;;;;;5129548;28;20166;-70
2021/09/12 10:27:48;;;;;;;10.23;5.70;;;21.50;99.90;;;;;;5145236;27;20170;-70
2021/09/12 10:30:24;;;;;;;15.88;7.03;;;21.70;99.90;;;;;;5129143;28;20643;-70
2021/09/12 10:32:52;;;;;;;12.48;7.20;;;21.60;99.90;;;;;;5129287;28;20188;-70
2021/09/12 10:35:26;;;;;;;14.55;7.18;;;21.80;99.90;;;;;;5128878;28;20162;-71
2021/09/12 10:38:11;;;;;;;12.00;7.30;;;21.70;99.90;;;;;;5129307;28;20178;-71
2021/09/12 10:40:49;;;;;;;12.75;6.82;;;21.50;99.90;;;;;;5129147;28;20150;-71
2021/09/12 10:43:26;;;;;;;13.27;6.93;;;21.50;99.90;;;;;;5128917;28;20261;-70
2021/09/12 10:46:04;;;;;;;12.10;6.97;;;21.70;99.90;;;;;;5110631;28;20170;-70
2021/09/12 10:48:33;;;;;;;11.57;7.43;;;21.80;99.90;;;;;;5128605;28;20615;-71
2021/09/12 10:51:14;;;;;;;14.90;7.22;;;21.90;99.90;;;;;;5128801;28;20147;-70
2021/09/12 10:53:46;;;;;;;11.88;6.63;;;21.90;99.90;;;;;;5128996;28;20299;-70
2021/09/12 10:56:17;;;;;;;13.60;6.82;;;22.10;99.90;;;;;;5128811;28;20162;-71
2021/09/12 10:58:46;;;;;;;13.65;6.85;;;22.40;99.90;;;;;;5129015;28;20220;-70
2021/09/12 11:01:35;;;;;;;17.75;6.70;;;22.10;99.90;;;;;;5128426;28;20158;-70
2021/09/12 11:04:02;;;;;;;17.08;7.20;;;22.00;99.90;;;;;;5128488;28;20166;-70
2021/09/12 11:06:30;;;;;;;13.77;7.35;;;21.90;99.90;;;;;;5128671;28;20165;-70
2021/09/12 11:08:57;;;;;;;12.60;7.38;;;21.70;99.90;;;;;;5127691;28;20426;-70
2021/09/12 11:11:24;;;;;;;11.60;6.85;;;21.70;99.90;;;;;;5128523;28;20166;-70
2021/09/12 11:13:52;;;;;;;8.98;6.65;;;21.80;99.90;;;;;;5144465;27;20194;-70
2021/09/12 11:16:19;;;;;;;9.80;6.95;;;21.60;99.90;;;;;;5110141;28;20605;-70
2021/09/12 11:18:49;;;;;;;13.57;7.57;;;21.70;99.90;;;;;;5127988;28;20163;-70
2021/09/12 11:21:36;;;;;;;12.00;7.07;;;22.20;99.90;;;;;;5126745;28;20399;-70
2021/09/12 11:24:11;;;;;;;14.32;6.65;;;22.90;99.90;;;;;;5128180;28;20153;-70
2021/09/12 11:26:40;;;;;;;7.55;5.97;;;22.80;99.90;;;;;;5128319;28;20158;-70
2021/09/12 11:29:09;;;;;;;12.60;6.30;;;22.90;99.90;;;;;;5128292;28;20227;-70
2021/09/12 11:31:36;;;;;;;11.32;6.93;;;22.90;99.90;;;;;;5127730;28;20174;-70
2021/09/12 11:34:02;;;;;;;11.00;7.43;;;22.90;99.90;;;;;;5127734;28;20178;-71
2021/09/12 11:36:45;;;;;;;11.77;7.13;;;22.90;99.90;;;;;;5128033;28;20170;-71
2021/09/12 11:39:12;;;;;;;14.85;6.50;;;23.00;99.90;;;;;;5109032;28;20177;-70
2021/09/12 11:41:40;;;;;;;13.32;6.00;;;23.10;99.90;;;;;;5127746;28;20182;-70
2021/09/12 11:44:06;;;;;;;7.38;5.90;;;23.50;99.90;;;;;;5110008;28;20246;-71
2021/09/12 11:46:32;;;;;;;12.40;5.90;;;23.50;99.90;;;;;;5127944;28;20551;-71
2021/09/12 11:49:01;;;;;;;9.98;6.43;;;23.50;99.90;;;;;;5127650;28;20159;-71
2021/09/12 11:51:30;;;;;;;12.73;5.95;;;23.30;99.90;;;;;;5127845;28;20158;-70
2021/09/12 11:54:17;;;;;;;6.93;5.45;;;23.10;99.90;;;;;;5127806;28;20190;-70
2021/09/12 11:56:44;;;;;;;8.05;5.38;;;23.30;99.90;;;;;;5127870;28;20167;-70
2021/09/12 11:59:14;;;;;;;10.55;6.00;;;23.40;99.90;;;;;;5109640;28;20189;-70
2021/09/12 12:01:41;;;;;;;7.78;5.40;;;23.30;99.90;;;;;;5127601;28;20162;-70
2021/09/12 12:04:08;;;;;;;8.55;5.30;;;23.60;99.90;;;;;;5127255;28;20163;-70
2021/09/12 12:06:34;;;;;;;7.45;5.40;;;23.50;99.90;;;;;;5127744;28;20165;-70
2021/09/12 12:09:08;;;;;;;8.85;5.28;;;23.60;99.90;;;;;;5126716;28;20222;-70
2021/09/12 12:11:40;;;;;;;10.80;5.32;;;23.20;99.90;;;;;;5127417;28;20166;-70
2021/09/12 12:14:09;;;;;;;6.63;5.57;;;22.90;99.90;;;;;;5109192;28;20159;-70
2021/09/12 12:16:39;;;;;;;10.68;5.85;;;23.00;99.90;;;;;;5108983;28;20619;-70
2021/09/12 12:19:07;;;;;;;10.75;5.13;;;23.50;99.90;;;;;;5126684;28;20650;-69
2021/09/12 12:21:34;;;;;;;6.50;5.10;;;23.70;99.90;;;;;;5127065;28;20170;-70
2021/09/12 12:24:19;;;;;;;7.45;5.45;;;23.30;99.90;;;;;;5108984;28;20189;-70
2021/09/12 12:26:50;;;;;;;6.53;5.00;;;23.10;99.90;;;;;;5127186;28;20162;-70
2021/09/12 12:29:32;;;;;;;7.10;5.38;;;23.40;99.90;;;;;;5127168;28;20154;-70
2021/09/12 12:32:00;;;;;;;9.63;5.90;;;23.90;99.90;;;;;;5126191;28;20296;-70
2021/09/12 12:34:38;;;;;;;10.27;5.00;;;24.10;99.90;;;;;;5126635;28;20165;-70
2021/09/12 12:37:05;;;;;;;6.03;4.45;;;23.90;99.90;;;;;;5108759;28;20162;-70
2021/09/12 12:39:31;;;;;;;6.95;4.57;;;23.60;99.90;;;;;;5126848;28;20529;-70